sensor_id;sensor_type;location;lat;lon;timestamp;P1;durP1;ratioP1;P2;durP2;ratioP2
75645;SDS011;64237;52.438;13.240;2023-07-08T00:00:23;7.35;;;3.72;;
75645;SDS011;64237;52.438;13.240;2023-07-08T00:02:49;9.05;;;4.18;;
75645;SDS011;64237;52.438;13.240;2023-07-08T00:05:16;6.95;;;3.72;;
75645;SDS011;64237;52.438;13.240;2023-07-08T00:07:43;10.95;;;4.40;;
75645;SDS011;64237;52.438;13.240;2023-07-08T00:10:18;7.97;;;4.25;;
75645;SDS011;64237;52.438;13.240;2023-07-08T00:12:47;7.70;;;3.70;;
75645;SDS011;64237;52.438;13.240;2023-07-08T00:15:17;10.75;;;4.55;;
75645;SDS011;64237;52.438;13.240;2023-07-08T00:17:52;7.32;;;4.00;;
75645;SDS011;64237;52.438;13.240;2023-07-08T00:20:20;8.85;;;4.40;;
75645;SDS011;64237;52.438;13.240;2023-07-08T00:23:00;9.05;;;3.95;;
75645;SDS011;64237;52.438;13.240;2023-07-08T00:25:26;7.43;;;3.80;;
75645;SDS011;64237;52.438;13.240;2023-07-08T00:27:52;8.98;;;4.60;;
75645;SDS011;64237;52.438;13.240;2023-07-08T00:32:45;7.55;;;3.72;;
75645;SDS011;64237;52.438;13.240;2023-07-08T00:35:11;7.80;;;4.30;;
75645;SDS011;64237;52.438;13.240;2023-07-08T00:37:36;8.25;;;4.05;;
75645;SDS011;64237;52.438;13.240;2023-07-08T00:40:02;6.85;;;4.25;;
75645;SDS011;64237;52.438;13.240;2023-07-08T00:42:57;8.85;;;4.35;;
75645;SDS011;64237;52.438;13.240;2023-07-08T00:48:01;8.68;;;4.40;;
75645;SDS011;64237;52.438;13.240;2023-07-08T00:50:38;9.60;;;4.40;;
75645;SDS011;64237;52.438;13.240;2023-07-08T00:53:21;6.35;;;3.90;;
75645;SDS011;64237;52.438;13.240;2023-07-08T00:55:47;10.18;;;4.20;;
75645;SDS011;64237;52.438;13.240;2023-07-08T00:58:13;9.05;;;4.13;;
75645;SDS011;64237;52.438;13.240;2023-07-08T01:00:38;8.20;;;4.10;;
75645;SDS011;64237;52.438;13.240;2023-07-08T01:03:10;7.72;;;4.30;;
75645;SDS011;64237;52.438;13.240;2023-07-08T01:05:35;7.60;;;4.30;;
75645;SDS011;64237;52.438;13.240;2023-07-08T01:08:06;8.93;;;4.32;;
75645;SDS011;64237;52.438;13.240;2023-07-08T01:10:50;10.02;;;4.50;;
75645;SDS011;64237;52.438;13.240;2023-07-08T01:13:19;9.32;;;4.22;;
75645;SDS011;64237;52.438;13.240;2023-07-08T01:15:47;9.30;;;4.07;;
75645;SDS011;64237;52.438;13.240;2023-07-08T01:18:14;8.95;;;4.43;;
75645;SDS011;64237;52.438;13.240;2023-07-08T01:20:41;8.68;;;4.18;;
75645;SDS011;64237;52.438;13.240;2023-07-08T01:23:10;8.77;;;4.43;;
75645;SDS011;64237;52.438;13.240;2023-07-08T01:25:40;8.13;;;4.05;;
75645;SDS011;64237;52.438;13.240;2023-07-08T01:28:10;9.05;;;4.38;;
75645;SDS011;64237;52.438;13.240;2023-07-08T01:30:40;8.63;;;4.20;;
75645;SDS011;64237;52.438;13.240;2023-07-08T01:33:17;9.00;;;4.85;;
75645;SDS011;64237;52.438;13.240;2023-07-08T01:35:46;8.18;;;4.50;;
75645;SDS011;64237;52.438;13.240;2023-07-08T01:38:18;8.48;;;4.20;;
75645;SDS011;64237;52.438;13.240;2023-07-08T01:40:50;8.70;;;4.15;;
75645;SDS011;64237;52.438;13.240;2023-07-08T01:43:17;9.20;;;4.70;;
75645;SDS011;64237;52.438;13.240;2023-07-08T01:45:51;9.10;;;4.10;;
75645;SDS011;64237;52.438;13.240;2023-07-08T01:50:48;8.80;;;4.57;;
75645;SDS011;64237;52.438;13.240;2023-07-08T01:53:29;8.52;;;4.20;;
75645;SDS011;64237;52.438;13.240;2023-07-08T01:56:00;13.45;;;4.53;;
75645;SDS011;64237;52.438;13.240;2023-07-08T02:00:59;7.38;;;4.05;;
75645;SDS011;64237;52.438;13.240;2023-07-08T02:03:26;7.18;;;4.18;;
75645;SDS011;64237;52.438;13.240;2023-07-08T02:05:55;11.05;;;4.25;;
75645;SDS011;64237;52.438;13.240;2023-07-08T02:08:20;10.45;;;4.78;;
75645;SDS011;64237;52.438;13.240;2023-07-08T02:10:50;8.75;;;4.35;;
75645;SDS011;64237;52.438;13.240;2023-07-08T02:13:20;8.55;;;4.50;;
75645;SDS011;64237;52.438;13.240;2023-07-08T02:16:02;8.18;;;4.10;;
75645;SDS011;64237;52.438;13.240;2023-07-08T02:18:28;8.50;;;3.95;;
75645;SDS011;64237;52.438;13.240;2023-07-08T02:20:57;9.02;;;4.32;;
75645;SDS011;64237;52.438;13.240;2023-07-08T02:23:22;8.52;;;4.55;;
75645;SDS011;64237;52.438;13.240;2023-07-08T02:25:54;9.70;;;4.87;;
75645;SDS011;64237;52.438;13.240;2023-07-08T02:28:23;8.45;;;4.20;;
75645;SDS011;64237;52.438;13.240;2023-07-08T02:31:07;8.93;;;4.53;;
75645;SDS011;64237;52.438;13.240;2023-07-08T02:33:32;8.63;;;4.45;;
75645;SDS011;64237;52.438;13.240;2023-07-08T02:36:04;8.50;;;4.22;;
75645;SDS011;64237;52.438;13.240;2023-07-08T02:38:29;10.48;;;4.50;;
75645;SDS011;64237;52.438;13.240;2023-07-08T02:40:55;9.75;;;4.55;;
75645;SDS011;64237;52.438;13.240;2023-07-08T02:43:23;8.15;;;4.47;;
75645;SDS011;64237;52.438;13.240;2023-07-08T02:45:49;8.23;;;4.10;;
75645;SDS011;64237;52.438;13.240;2023-07-08T02:48:16;10.20;;;4.57;;
75645;SDS011;64237;52.438;13.240;2023-07-08T02:50:42;7.78;;;4.20;;
75645;SDS011;64237;52.438;13.240;2023-07-08T02:53:14;7.55;;;4.20;;
75645;SDS011;64237;52.438;13.240;2023-07-08T02:55:42;8.70;;;4.28;;
75645;SDS011;64237;52.438;13.240;2023-07-08T02:58:08;8.45;;;4.15;;
75645;SDS011;64237;52.438;13.240;2023-07-08T03:00:34;9.55;;;4.22;;
75645;SDS011;64237;52.438;13.240;2023-07-08T03:03:02;9.30;;;4.32;;
75645;SDS011;64237;52.438;13.240;2023-07-08T03:05:31;9.85;;;4.90;;
75645;SDS011;64237;52.438;13.240;2023-07-08T03:07:56;8.32;;;4.43;;
75645;SDS011;64237;52.438;13.240;2023-07-08T03:10:22;9.80;;;4.57;;
75645;SDS011;64237;52.438;13.240;2023-07-08T03:12:47;8.50;;;4.43;;
75645;SDS011;64237;52.438;13.240;2023-07-08T03:15:14;8.25;;;4.20;;
75645;SDS011;64237;52.438;13.240;2023-07-08T03:17:39;8.05;;;4.55;;
75645;SDS011;64237;52.438;13.240;2023-07-08T03:20:08;7.38;;;4.10;;
75645;SDS011;64237;52.438;13.240;2023-07-08T03:22:41;9.00;;;4.35;;
75645;SDS011;64237;52.438;13.240;2023-07-08T03:25:09;8.68;;;4.38;;
75645;SDS011;64237;52.438;13.240;2023-07-08T03:27:34;8.88;;;4.72;;
75645;SDS011;64237;52.438;13.240;2023-07-08T03:30:00;8.07;;;4.18;;
75645;SDS011;64237;52.438;13.240;2023-07-08T03:32:25;8.00;;;4.43;;
75645;SDS011;64237;52.438;13.240;2023-07-08T03:34:53;8.13;;;4.28;;
75645;SDS011;64237;52.438;13.240;2023-07-08T03:37:19;9.05;;;4.63;;
75645;SDS011;64237;52.438;13.240;2023-07-08T03:39:47;8.27;;;4.50;;
75645;SDS011;64237;52.438;13.240;2023-07-08T03:42:12;8.40;;;4.10;;
75645;SDS011;64237;52.438;13.240;2023-07-08T03:44:38;9.18;;;4.32;;
75645;SDS011;64237;52.438;13.240;2023-07-08T03:47:03;8.82;;;4.20;;
75645;SDS011;64237;52.438;13.240;2023-07-08T03:49:32;10.07;;;4.30;;
75645;SDS011;64237;52.438;13.240;2023-07-08T03:52:00;8.88;;;4.20;;
75645;SDS011;64237;52.438;13.240;2023-07-08T03:54:26;9.27;;;4.75;;
75645;SDS011;64237;52.438;13.240;2023-07-08T03:56:51;8.50;;;4.40;;
75645;SDS011;64237;52.438;13.240;2023-07-08T03:59:17;8.00;;;4.15;;
75645;SDS011;64237;52.438;13.240;2023-07-08T04:01:43;7.82;;;3.88;;
75645;SDS011;64237;52.438;13.240;2023-07-08T04:04:10;8.57;;;4.33;;
75645;SDS011;64237;52.438;13.240;2023-07-08T04:06:37;8.15;;;4.25;;
75645;SDS011;64237;52.438;13.240;2023-07-08T04:09:03;8.55;;;4.30;;
75645;SDS011;64237;52.438;13.240;2023-07-08T04:11:28;8.27;;;4.00;;
75645;SDS011;64237;52.438;13.240;2023-07-08T04:13:54;7.72;;;4.03;;
75645;SDS011;64237;52.438;13.240;2023-07-08T04:16:26;8.05;;;4.38;;
75645;SDS011;64237;52.438;13.240;2023-07-08T04:19:00;6.53;;;3.70;;
75645;SDS011;64237;52.438;13.240;2023-07-08T04:21:29;8.60;;;4.43;;
75645;SDS011;64237;52.438;13.240;2023-07-08T04:26:23;8.93;;;4.40;;
75645;SDS011;64237;52.438;13.240;2023-07-08T04:28:51;7.82;;;4.20;;
75645;SDS011;64237;52.438;13.240;2023-07-08T04:31:17;7.80;;;4.03;;
75645;SDS011;64237;52.438;13.240;2023-07-08T04:33:42;11.30;;;4.65;;
75645;SDS011;64237;52.438;13.240;2023-07-08T04:36:11;8.15;;;3.90;;
75645;SDS011;64237;52.438;13.240;2023-07-08T04:38:41;8.48;;;3.92;;
75645;SDS011;64237;52.438;13.240;2023-07-08T04:41:07;9.45;;;3.72;;
75645;SDS011;64237;52.438;13.240;2023-07-08T04:43:35;10.43;;;4.82;;
75645;SDS011;64237;52.438;13.240;2023-07-08T04:46:00;9.63;;;4.38;;
75645;SDS011;64237;52.438;13.240;2023-07-08T04:48:26;8.40;;;4.20;;
75645;SDS011;64237;52.438;13.240;2023-07-08T04:50:52;8.57;;;3.80;;
75645;SDS011;64237;52.438;13.240;2023-07-08T04:53:19;7.68;;;3.58;;
75645;SDS011;64237;52.438;13.240;2023-07-08T04:55:46;10.88;;;3.80;;
75645;SDS011;64237;52.438;13.240;2023-07-08T04:58:15;9.38;;;3.67;;
75645;SDS011;64237;52.438;13.240;2023-07-08T05:00:40;7.50;;;3.50;;
75645;SDS011;64237;52.438;13.240;2023-07-08T05:03:05;6.20;;;2.47;;
75645;SDS011;64237;52.438;13.240;2023-07-08T05:05:31;4.37;;;2.37;;
75645;SDS011;64237;52.438;13.240;2023-07-08T05:07:56;5.90;;;3.28;;
75645;SDS011;64237;52.438;13.240;2023-07-08T05:10:24;8.75;;;3.08;;
75645;SDS011;64237;52.438;13.240;2023-07-08T05:12:53;6.47;;;3.25;;
75645;SDS011;64237;52.438;13.240;2023-07-08T05:15:18;7.32;;;3.38;;
75645;SDS011;64237;52.438;13.240;2023-07-08T05:17:44;7.40;;;3.30;;
75645;SDS011;64237;52.438;13.240;2023-07-08T05:20:13;6.85;;;3.20;;
75645;SDS011;64237;52.438;13.240;2023-07-08T05:22:39;10.77;;;3.28;;
75645;SDS011;64237;52.438;13.240;2023-07-08T05:25:15;6.40;;;3.22;;
75645;SDS011;64237;52.438;13.240;2023-07-08T05:27:41;8.27;;;3.25;;
75645;SDS011;64237;52.438;13.240;2023-07-08T05:30:07;5.32;;;2.97;;
75645;SDS011;64237;52.438;13.240;2023-07-08T05:32:44;5.13;;;2.78;;
75645;SDS011;64237;52.438;13.240;2023-07-08T05:35:09;7.53;;;3.30;;
75645;SDS011;64237;52.438;13.240;2023-07-08T05:37:35;10.00;;;3.55;;
75645;SDS011;64237;52.438;13.240;2023-07-08T05:40:09;7.63;;;3.10;;
75645;SDS011;64237;52.438;13.240;2023-07-08T05:42:35;6.68;;;2.95;;
75645;SDS011;64237;52.438;13.240;2023-07-08T05:45:01;7.25;;;3.22;;
75645;SDS011;64237;52.438;13.240;2023-07-08T05:47:26;6.20;;;2.83;;
75645;SDS011;64237;52.438;13.240;2023-07-08T05:50:01;6.05;;;2.97;;
75645;SDS011;64237;52.438;13.240;2023-07-08T05:54:55;9.90;;;2.90;;
75645;SDS011;64237;52.438;13.240;2023-07-08T05:57:23;7.30;;;2.50;;
75645;SDS011;64237;52.438;13.240;2023-07-08T05:59:49;5.95;;;2.78;;
75645;SDS011;64237;52.438;13.240;2023-07-08T06:02:18;6.13;;;2.58;;
75645;SDS011;64237;52.438;13.240;2023-07-08T06:04:46;6.35;;;3.20;;
75645;SDS011;64237;52.438;13.240;2023-07-08T06:07:12;5.88;;;2.58;;
75645;SDS011;64237;52.438;13.240;2023-07-08T06:09:37;5.28;;;2.80;;
75645;SDS011;64237;52.438;13.240;2023-07-08T06:12:03;6.25;;;2.92;;
75645;SDS011;64237;52.438;13.240;2023-07-08T06:14:28;8.18;;;2.95;;
75645;SDS011;64237;52.438;13.240;2023-07-08T06:16:54;6.07;;;2.92;;
75645;SDS011;64237;52.438;13.240;2023-07-08T06:19:20;5.13;;;2.80;;
75645;SDS011;64237;52.438;13.240;2023-07-08T06:21:45;4.40;;;2.60;;
75645;SDS011;64237;52.438;13.240;2023-07-08T06:24:11;6.63;;;2.72;;
75645;SDS011;64237;52.438;13.240;2023-07-08T06:26:36;9.15;;;2.90;;
75645;SDS011;64237;52.438;13.240;2023-07-08T06:29:02;6.30;;;2.83;;
75645;SDS011;64237;52.438;13.240;2023-07-08T06:31:28;6.32;;;2.55;;
75645;SDS011;64237;52.438;13.240;2023-07-08T06:33:53;5.20;;;2.75;;
75645;SDS011;64237;52.438;13.240;2023-07-08T06:36:18;6.78;;;2.83;;
75645;SDS011;64237;52.438;13.240;2023-07-08T06:38:44;5.65;;;2.53;;
75645;SDS011;64237;52.438;13.240;2023-07-08T06:41:09;4.72;;;2.80;;
75645;SDS011;64237;52.438;13.240;2023-07-08T06:43:35;5.78;;;2.65;;
75645;SDS011;64237;52.438;13.240;2023-07-08T06:46:00;7.07;;;2.83;;
75645;SDS011;64237;52.438;13.240;2023-07-08T06:48:25;5.13;;;2.58;;
75645;SDS011;64237;52.438;13.240;2023-07-08T06:50:52;8.95;;;2.60;;
75645;SDS011;64237;52.438;13.240;2023-07-08T06:53:18;5.43;;;2.35;;
75645;SDS011;64237;52.438;13.240;2023-07-08T06:55:44;5.22;;;2.70;;
75645;SDS011;64237;52.438;13.240;2023-07-08T06:58:10;6.07;;;2.50;;
75645;SDS011;64237;52.438;13.240;2023-07-08T07:00:36;5.50;;;2.42;;
75645;SDS011;64237;52.438;13.240;2023-07-08T07:03:01;6.07;;;2.87;;
75645;SDS011;64237;52.438;13.240;2023-07-08T07:05:26;6.03;;;2.50;;
75645;SDS011;64237;52.438;13.240;2023-07-08T07:07:52;7.43;;;2.97;;
75645;SDS011;64237;52.438;13.240;2023-07-08T07:10:18;4.10;;;2.47;;
75645;SDS011;64237;52.438;13.240;2023-07-08T07:12:44;5.68;;;2.42;;
75645;SDS011;64237;52.438;13.240;2023-07-08T07:15:09;4.57;;;2.53;;
75645;SDS011;64237;52.438;13.240;2023-07-08T07:17:34;5.82;;;2.70;;
75645;SDS011;64237;52.438;13.240;2023-07-08T07:20:01;4.45;;;2.47;;
75645;SDS011;64237;52.438;13.240;2023-07-08T07:22:27;4.95;;;2.60;;
75645;SDS011;64237;52.438;13.240;2023-07-08T07:24:53;6.03;;;2.42;;
75645;SDS011;64237;52.438;13.240;2023-07-08T07:27:19;7.13;;;2.60;;
75645;SDS011;64237;52.438;13.240;2023-07-08T07:29:46;8.15;;;2.80;;
75645;SDS011;64237;52.438;13.240;2023-07-08T07:32:13;5.63;;;2.88;;
75645;SDS011;64237;52.438;13.240;2023-07-08T07:34:39;6.40;;;2.80;;
75645;SDS011;64237;52.438;13.240;2023-07-08T07:37:05;5.43;;;2.80;;
75645;SDS011;64237;52.438;13.240;2023-07-08T07:39:31;6.20;;;2.88;;
75645;SDS011;64237;52.438;13.240;2023-07-08T07:41:57;4.47;;;2.50;;
75645;SDS011;64237;52.438;13.240;2023-07-08T07:44:22;5.30;;;2.50;;
75645;SDS011;64237;52.438;13.240;2023-07-08T07:46:49;5.88;;;2.70;;
75645;SDS011;64237;52.438;13.240;2023-07-08T07:49:15;7.18;;;2.60;;
75645;SDS011;64237;52.438;13.240;2023-07-08T07:51:40;4.43;;;2.60;;
75645;SDS011;64237;52.438;13.240;2023-07-08T07:54:07;6.20;;;2.72;;
75645;SDS011;64237;52.438;13.240;2023-07-08T07:56:32;6.38;;;2.53;;
75645;SDS011;64237;52.438;13.240;2023-07-08T07:58:58;5.32;;;2.20;;
75645;SDS011;64237;52.438;13.240;2023-07-08T08:01:23;6.15;;;2.58;;
75645;SDS011;64237;52.438;13.240;2023-07-08T08:03:48;5.75;;;2.50;;
75645;SDS011;64237;52.438;13.240;2023-07-08T08:06:15;5.55;;;2.65;;
75645;SDS011;64237;52.438;13.240;2023-07-08T08:08:43;6.30;;;2.60;;
75645;SDS011;64237;52.438;13.240;2023-07-08T08:11:08;7.22;;;2.65;;
75645;SDS011;64237;52.438;13.240;2023-07-08T08:13:34;5.43;;;2.67;;
75645;SDS011;64237;52.438;13.240;2023-07-08T08:15:59;5.00;;;2.47;;
75645;SDS011;64237;52.438;13.240;2023-07-08T08:18:25;5.10;;;2.60;;
75645;SDS011;64237;52.438;13.240;2023-07-08T08:20:51;6.07;;;2.53;;
75645;SDS011;64237;52.438;13.240;2023-07-08T08:23:16;5.72;;;2.70;;
75645;SDS011;64237;52.438;13.240;2023-07-08T08:25:42;5.60;;;2.53;;
75645;SDS011;64237;52.438;13.240;2023-07-08T08:28:07;6.32;;;2.30;;
75645;SDS011;64237;52.438;13.240;2023-07-08T08:30:32;4.75;;;2.50;;
75645;SDS011;64237;52.438;13.240;2023-07-08T08:32:59;6.47;;;2.58;;
75645;SDS011;64237;52.438;13.240;2023-07-08T08:35:24;7.97;;;2.58;;
75645;SDS011;64237;52.438;13.240;2023-07-08T08:37:50;6.47;;;2.60;;
75645;SDS011;64237;52.438;13.240;2023-07-08T08:40:18;8.70;;;2.70;;
75645;SDS011;64237;52.438;13.240;2023-07-08T08:42:45;6.07;;;2.17;;
75645;SDS011;64237;52.438;13.240;2023-07-08T08:45:17;4.22;;;2.30;;
75645;SDS011;64237;52.438;13.240;2023-07-08T08:47:46;8.38;;;2.30;;
75645;SDS011;64237;52.438;13.240;2023-07-08T08:52:54;4.15;;;1.90;;
75645;SDS011;64237;52.438;13.240;2023-07-08T08:55:21;3.72;;;2.10;;
75645;SDS011;64237;52.438;13.240;2023-07-08T09:00:16;4.97;;;2.20;;
75645;SDS011;64237;52.438;13.240;2023-07-08T09:05:32;3.83;;;1.92;;
75645;SDS011;64237;52.438;13.240;2023-07-08T09:08:00;4.90;;;2.08;;
75645;SDS011;64237;52.438;13.240;2023-07-08T09:10:38;6.25;;;2.00;;
75645;SDS011;64237;52.438;13.240;2023-07-08T09:13:22;4.93;;;1.60;;
75645;SDS011;64237;52.438;13.240;2023-07-08T09:15:54;4.30;;;1.80;;
75645;SDS011;64237;52.438;13.240;2023-07-08T09:18:27;6.13;;;1.90;;
75645;SDS011;64237;52.438;13.240;2023-07-08T09:20:58;4.22;;;2.10;;
75645;SDS011;64237;52.438;13.240;2023-07-08T09:23:38;6.60;;;1.85;;
75645;SDS011;64237;52.438;13.240;2023-07-08T09:26:06;4.80;;;2.17;;
75645;SDS011;64237;52.438;13.240;2023-07-08T09:28:41;6.10;;;2.10;;
75645;SDS011;64237;52.438;13.240;2023-07-08T09:31:09;5.38;;;2.08;;
75645;SDS011;64237;52.438;13.240;2023-07-08T09:34:13;4.72;;;2.35;;
75645;SDS011;64237;52.438;13.240;2023-07-08T09:36:44;5.45;;;2.20;;
75645;SDS011;64237;52.438;13.240;2023-07-08T09:39:14;4.97;;;2.00;;
75645;SDS011;64237;52.438;13.240;2023-07-08T09:41:42;4.78;;;2.00;;
75645;SDS011;64237;52.438;13.240;2023-07-08T09:44:23;4.22;;;2.05;;
75645;SDS011;64237;52.438;13.240;2023-07-08T09:46:55;5.50;;;2.28;;
75645;SDS011;64237;52.438;13.240;2023-07-08T09:51:52;4.22;;;2.13;;
75645;SDS011;64237;52.438;13.240;2023-07-08T09:54:22;8.73;;;2.75;;
75645;SDS011;64237;52.438;13.240;2023-07-08T09:59:27;5.53;;;2.20;;
75645;SDS011;64237;52.438;13.240;2023-07-08T10:01:58;10.73;;;2.90;;
75645;SDS011;64237;52.438;13.240;2023-07-08T10:04:24;3.38;;;2.10;;
75645;SDS011;64237;52.438;13.240;2023-07-08T10:06:50;4.07;;;2.13;;
75645;SDS011;64237;52.438;13.240;2023-07-08T10:09:19;7.00;;;2.20;;
75645;SDS011;64237;52.438;13.240;2023-07-08T10:11:47;5.10;;;2.28;;
75645;SDS011;64237;52.438;13.240;2023-07-08T10:14:23;4.50;;;2.17;;
75645;SDS011;64237;52.438;13.240;2023-07-08T10:16:51;3.22;;;1.85;;
75645;SDS011;64237;52.438;13.240;2023-07-08T10:19:18;5.78;;;2.33;;
75645;SDS011;64237;52.438;13.240;2023-07-08T10:30:21;5.00;;;2.10;;
75645;SDS011;64237;52.438;13.240;2023-07-08T11:10:40;6.93;;;1.90;;
75645;SDS011;64237;52.438;13.240;2023-07-08T11:13:12;4.88;;;2.15;;
75645;SDS011;64237;52.438;13.240;2023-07-08T11:24:08;8.70;;;2.50;;
75645;SDS011;64237;52.438;13.240;2023-07-08T11:26:45;5.22;;;2.40;;
75645;SDS011;64237;52.438;13.240;2023-07-08T11:29:22;6.25;;;2.20;;
75645;SDS011;64237;52.438;13.240;2023-07-08T11:32:01;4.93;;;2.22;;
75645;SDS011;64237;52.438;13.240;2023-07-08T11:34:29;4.25;;;2.10;;
75645;SDS011;64237;52.438;13.240;2023-07-08T11:36:55;6.97;;;2.47;;
75645;SDS011;64237;52.438;13.240;2023-07-08T11:39:26;4.68;;;2.30;;
75645;SDS011;64237;52.438;13.240;2023-07-08T11:44:41;5.95;;;2.30;;
75645;SDS011;64237;52.438;13.240;2023-07-08T11:47:13;4.97;;;2.30;;
75645;SDS011;64237;52.438;13.240;2023-07-08T11:49:42;7.40;;;2.40;;
75645;SDS011;64237;52.438;13.240;2023-07-08T11:52:13;4.43;;;2.20;;
75645;SDS011;64237;52.438;13.240;2023-07-08T11:54:46;4.65;;;2.20;;
75645;SDS011;64237;52.438;13.240;2023-07-08T11:57:23;4.20;;;2.28;;
75645;SDS011;64237;52.438;13.240;2023-07-08T12:02:58;4.20;;;2.33;;
75645;SDS011;64237;52.438;13.240;2023-07-08T12:05:29;8.32;;;2.40;;
75645;SDS011;64237;52.438;13.240;2023-07-08T12:07:55;7.70;;;2.40;;
75645;SDS011;64237;52.438;13.240;2023-07-08T12:10:27;7.15;;;2.45;;
75645;SDS011;64237;52.438;13.240;2023-07-08T12:12:58;4.82;;;2.70;;
75645;SDS011;64237;52.438;13.240;2023-07-08T12:15:28;5.47;;;2.50;;
75645;SDS011;64237;52.438;13.240;2023-07-08T12:18:39;4.95;;;2.30;;
75645;SDS011;64237;52.438;13.240;2023-07-08T12:20:59;6.22;;;2.10;;
75645;SDS011;64237;52.438;13.240;2023-07-08T12:23:28;4.05;;;2.47;;
75645;SDS011;64237;52.438;13.240;2023-07-08T12:25:55;6.68;;;2.45;;
75645;SDS011;64237;52.438;13.240;2023-07-08T12:28:22;4.68;;;2.30;;
75645;SDS011;64237;52.438;13.240;2023-07-08T12:30:49;5.38;;;2.22;;
75645;SDS011;64237;52.438;13.240;2023-07-08T12:33:24;5.53;;;2.17;;
75645;SDS011;64237;52.438;13.240;2023-07-08T12:35:53;6.28;;;2.42;;
75645;SDS011;64237;52.438;13.240;2023-07-08T12:38:29;6.28;;;2.08;;
75645;SDS011;64237;52.438;13.240;2023-07-08T12:42:01;4.53;;;2.60;;
75645;SDS011;64237;52.438;13.240;2023-07-08T12:44:00;3.97;;;2.17;;
75645;SDS011;64237;52.438;13.240;2023-07-08T12:46:26;4.45;;;2.28;;
75645;SDS011;64237;52.438;13.240;2023-07-08T12:48:53;4.07;;;2.30;;
75645;SDS011;64237;52.438;13.240;2023-07-08T12:51:27;5.95;;;2.17;;
75645;SDS011;64237;52.438;13.240;2023-07-08T12:53:53;6.63;;;2.75;;
75645;SDS011;64237;52.438;13.240;2023-07-08T12:56:19;5.18;;;2.13;;
75645;SDS011;64237;52.438;13.240;2023-07-08T12:58:51;5.28;;;2.58;;
75645;SDS011;64237;52.438;13.240;2023-07-08T13:01:24;4.72;;;2.40;;
75645;SDS011;64237;52.438;13.240;2023-07-08T13:03:55;5.82;;;2.70;;
75645;SDS011;64237;52.438;13.240;2023-07-08T13:06:25;4.35;;;2.28;;
75645;SDS011;64237;52.438;13.240;2023-07-08T13:09:06;8.52;;;2.60;;
75645;SDS011;64237;52.438;13.240;2023-07-08T13:11:33;7.88;;;2.60;;
75645;SDS011;64237;52.438;13.240;2023-07-08T13:13:59;5.10;;;2.53;;
75645;SDS011;64237;52.438;13.240;2023-07-08T13:16:28;6.63;;;2.60;;
75645;SDS011;64237;52.438;13.240;2023-07-08T13:18:58;5.03;;;2.28;;
75645;SDS011;64237;52.438;13.240;2023-07-08T13:21:24;7.35;;;2.78;;
75645;SDS011;64237;52.438;13.240;2023-07-08T13:23:52;5.55;;;2.40;;
75645;SDS011;64237;52.438;13.240;2023-07-08T13:26:20;5.00;;;2.42;;
75645;SDS011;64237;52.438;13.240;2023-07-08T13:28:48;4.60;;;2.40;;
75645;SDS011;64237;52.438;13.240;2023-07-08T13:31:20;4.78;;;2.42;;
75645;SDS011;64237;52.438;13.240;2023-07-08T13:33:54;6.55;;;2.30;;
75645;SDS011;64237;52.438;13.240;2023-07-08T13:36:23;6.22;;;2.67;;
75645;SDS011;64237;52.438;13.240;2023-07-08T13:38:59;5.88;;;2.50;;
75645;SDS011;64237;52.438;13.240;2023-07-08T13:41:30;5.40;;;2.50;;
75645;SDS011;64237;52.438;13.240;2023-07-08T13:43:55;5.65;;;2.60;;
75645;SDS011;64237;52.438;13.240;2023-07-08T13:46:37;6.93;;;2.70;;
75645;SDS011;64237;52.438;13.240;2023-07-08T13:49:19;7.13;;;2.70;;
75645;SDS011;64237;52.438;13.240;2023-07-08T13:51:45;5.40;;;2.42;;
75645;SDS011;64237;52.438;13.240;2023-07-08T13:56:44;5.00;;;2.33;;
75645;SDS011;64237;52.438;13.240;2023-07-08T13:59:11;5.72;;;2.53;;
75645;SDS011;64237;52.438;13.240;2023-07-08T14:01:43;6.30;;;2.40;;
75645;SDS011;64237;52.438;13.240;2023-07-08T14:04:13;6.80;;;2.80;;
75645;SDS011;64237;52.438;13.240;2023-07-08T14:06:41;5.15;;;2.53;;
75645;SDS011;64237;52.438;13.240;2023-07-08T14:09:11;6.68;;;2.22;;
75645;SDS011;64237;52.438;13.240;2023-07-08T14:11:37;6.35;;;2.70;;
75645;SDS011;64237;52.438;13.240;2023-07-08T14:14:02;5.78;;;2.38;;
75645;SDS011;64237;52.438;13.240;2023-07-08T14:16:29;4.55;;;2.40;;
75645;SDS011;64237;52.438;13.240;2023-07-08T14:18:56;5.70;;;2.35;;
75645;SDS011;64237;52.438;13.240;2023-07-08T14:21:24;6.75;;;2.67;;
75645;SDS011;64237;52.438;13.240;2023-07-08T14:23:49;5.00;;;2.50;;
75645;SDS011;64237;52.438;13.240;2023-07-08T14:26:15;5.80;;;2.33;;
75645;SDS011;64237;52.438;13.240;2023-07-08T14:28:40;6.22;;;2.20;;
75645;SDS011;64237;52.438;13.240;2023-07-08T14:31:12;5.18;;;2.50;;
75645;SDS011;64237;52.438;13.240;2023-07-08T14:33:43;5.38;;;2.63;;
75645;SDS011;64237;52.438;13.240;2023-07-08T14:36:09;5.82;;;2.58;;
75645;SDS011;64237;52.438;13.240;2023-07-08T14:38:35;4.78;;;2.50;;
75645;SDS011;64237;52.438;13.240;2023-07-08T14:41:01;5.07;;;2.47;;
75645;SDS011;64237;52.438;13.240;2023-07-08T14:43:27;6.60;;;2.65;;
75645;SDS011;64237;52.438;13.240;2023-07-08T14:45:54;4.25;;;2.25;;
75645;SDS011;64237;52.438;13.240;2023-07-08T14:48:21;4.28;;;2.13;;
75645;SDS011;64237;52.438;13.240;2023-07-08T14:50:48;7.95;;;2.45;;
75645;SDS011;64237;52.438;13.240;2023-07-08T14:53:14;4.55;;;2.47;;
75645;SDS011;64237;52.438;13.240;2023-07-08T14:55:40;4.93;;;2.40;;
75645;SDS011;64237;52.438;13.240;2023-07-08T14:58:08;7.55;;;2.65;;
75645;SDS011;64237;52.438;13.240;2023-07-08T15:00:43;6.53;;;2.38;;
75645;SDS011;64237;52.438;13.240;2023-07-08T15:03:08;5.68;;;2.50;;
75645;SDS011;64237;52.438;13.240;2023-07-08T15:05:35;6.20;;;2.30;;
75645;SDS011;64237;52.438;13.240;2023-07-08T15:08:00;5.55;;;2.40;;
75645;SDS011;64237;52.438;13.240;2023-07-08T15:10:27;5.85;;;2.30;;
75645;SDS011;64237;52.438;13.240;2023-07-08T15:12:54;6.90;;;2.22;;
75645;SDS011;64237;52.438;13.240;2023-07-08T15:15:22;4.78;;;2.60;;
75645;SDS011;64237;52.438;13.240;2023-07-08T15:17:52;4.93;;;2.50;;
75645;SDS011;64237;52.438;13.240;2023-07-08T15:20:17;4.70;;;2.28;;
75645;SDS011;64237;52.438;13.240;2023-07-08T15:22:44;5.53;;;2.63;;
75645;SDS011;64237;52.438;13.240;2023-07-08T15:25:10;8.80;;;2.97;;
75645;SDS011;64237;52.438;13.240;2023-07-08T15:27:37;4.40;;;2.50;;
75645;SDS011;64237;52.438;13.240;2023-07-08T15:30:03;4.53;;;2.30;;
75645;SDS011;64237;52.438;13.240;2023-07-08T15:32:29;7.35;;;2.50;;
75645;SDS011;64237;52.438;13.240;2023-07-08T15:34:54;5.43;;;2.20;;
75645;SDS011;64237;52.438;13.240;2023-07-08T15:37:20;4.63;;;2.50;;
75645;SDS011;64237;52.438;13.240;2023-07-08T15:39:45;4.93;;;2.37;;
75645;SDS011;64237;52.438;13.240;2023-07-08T15:42:11;6.45;;;2.65;;
75645;SDS011;64237;52.438;13.240;2023-07-08T15:44:37;4.90;;;2.30;;
75645;SDS011;64237;52.438;13.240;2023-07-08T15:47:03;4.80;;;2.42;;
75645;SDS011;64237;52.438;13.240;2023-07-08T15:49:29;4.00;;;2.10;;
75645;SDS011;64237;52.438;13.240;2023-07-08T15:51:55;5.15;;;2.47;;
75645;SDS011;64237;52.438;13.240;2023-07-08T15:54:21;5.97;;;2.40;;
75645;SDS011;64237;52.438;13.240;2023-07-08T15:56:47;5.07;;;2.50;;
75645;SDS011;64237;52.438;13.240;2023-07-08T15:59:18;5.55;;;2.60;;
75645;SDS011;64237;52.438;13.240;2023-07-08T16:01:48;5.57;;;2.60;;
75645;SDS011;64237;52.438;13.240;2023-07-08T16:04:22;4.50;;;2.20;;
75645;SDS011;64237;52.438;13.240;2023-07-08T16:06:50;7.20;;;2.30;;
75645;SDS011;64237;52.438;13.240;2023-07-08T16:09:15;5.72;;;2.17;;
75645;SDS011;64237;52.438;13.240;2023-07-08T16:11:41;5.28;;;2.42;;